sensor_id;sensor_type;location;lat;lon;timestamp;pressure;altitude;pressure_sealevel;temperature;humidity
69909;BME280;57190;47.918;8.112;2023-01-28T00:01:17;90906.19;;;-4.02;77.83
69909;BME280;57190;47.918;8.112;2023-01-28T00:03:43;90904.84;;;-3.98;77.73
69909;BME280;57190;47.918;8.112;2023-01-28T00:06:13;90910.97;;;-3.90;78.01
69909;BME280;57190;47.918;8.112;2023-01-28T00:08:38;90907.72;;;-3.92;78.23
69909;BME280;57190;47.918;8.112;2023-01-28T00:11:06;90907.19;;;-3.88;78.04
69909;BME280;57190;47.918;8.112;2023-01-28T00:13:32;90914.28;;;-3.97;78.65
69909;BME280;57190;47.918;8.112;2023-01-28T00:16:01;90914.75;;;-3.93;77.93
69909;BME280;57190;47.918;8.112;2023-01-28T00:18:27;90916.78;;;-4.03;77.78
69909;BME280;57190;47.918;8.112;2023-01-28T00:21:02;90907.34;;;-4.04;78.44
69909;BME280;57190;47.918;8.112;2023-01-28T00:23:30;90909.25;;;-3.98;77.79
69909;BME280;57190;47.918;8.112;2023-01-28T00:26:03;90906.38;;;-4.03;78.41
69909;BME280;57190;47.918;8.112;2023-01-28T00:28:29;90906.09;;;-3.93;78.02
69909;BME280;57190;47.918;8.112;2023-01-28T00:30:55;90904.22;;;-4.00;78.42
69909;BME280;57190;47.918;8.112;2023-01-28T00:33:21;90895.75;;;-4.02;78.19
69909;BME280;57190;47.918;8.112;2023-01-28T00:35:47;90906.09;;;-3.93;78.80
69909;BME280;57190;47.918;8.112;2023-01-28T00:38:13;90905.94;;;-3.92;78.29
69909;BME280;57190;47.918;8.112;2023-01-28T00:40:38;90902.69;;;-3.94;78.52
69909;BME280;57190;47.918;8.112;2023-01-28T00:43:04;90904.31;;;-3.93;78.65
69909;BME280;57190;47.918;8.112;2023-01-28T00:45:29;90889.91;;;-3.89;78.06
69909;BME280;57190;47.918;8.112;2023-01-28T00:47:55;90896.41;;;-3.85;78.42
69909;BME280;57190;47.918;8.112;2023-01-28T00:50:20;90902.41;;;-3.84;77.64
69909;BME280;57190;47.918;8.112;2023-01-28T00:52:47;90904.56;;;-3.88;78.76
69909;BME280;57190;47.918;8.112;2023-01-28T00:55:13;90900.09;;;-3.94;78.38
69909;BME280;57190;47.918;8.112;2023-01-28T00:57:38;90900.97;;;-3.87;78.32
69909;BME280;57190;47.918;8.112;2023-01-28T01:00:05;90904.22;;;-3.85;78.30
69909;BME280;57190;47.918;8.112;2023-01-28T01:02:31;90902.59;;;-3.86;78.41
69909;BME280;57190;47.918;8.112;2023-01-28T01:04:57;90907.81;;;-3.86;78.18
69909;BME280;57190;47.918;8.112;2023-01-28T01:07:23;90900.19;;;-3.87;78.68
69909;BME280;57190;47.918;8.112;2023-01-28T01:10:15;90899.38;;;-3.88;78.59
69909;BME280;57190;47.918;8.112;2023-01-28T01:12:42;90899.56;;;-3.89;78.85
69909;BME280;57190;47.918;8.112;2023-01-28T01:15:09;90882.56;;;-3.85;78.59
69909;BME280;57190;47.918;8.112;2023-01-28T01:17:36;90895.97;;;-3.88;78.92
69909;BME280;57190;47.918;8.112;2023-01-28T01:20:04;90895.13;;;-3.89;78.60
69909;BME280;57190;47.918;8.112;2023-01-28T01:22:34;90890.56;;;-3.87;79.07
69909;BME280;57190;47.918;8.112;2023-01-28T01:25:00;90897.75;;;-3.89;78.47
69909;BME280;57190;47.918;8.112;2023-01-28T01:27:26;90894.69;;;-3.92;79.17
69909;BME280;57190;47.918;8.112;2023-01-28T01:29:51;90887.16;;;-3.87;78.61
69909;BME280;57190;47.918;8.112;2023-01-28T01:32:17;90887.94;;;-3.87;78.23
69909;BME280;57190;47.918;8.112;2023-01-28T01:34:43;90882.56;;;-3.85;78.71
69909;BME280;57190;47.918;8.112;2023-01-28T01:37:08;90893.25;;;-3.80;78.08
69909;BME280;57190;47.918;8.112;2023-01-28T01:39:35;90886.44;;;-3.81;78.53
69909;BME280;57190;47.918;8.112;2023-01-28T01:42:01;90890.38;;;-3.85;78.78
69909;BME280;57190;47.918;8.112;2023-01-28T01:49:54;90882.94;;;-3.88;78.49
69909;BME280;57190;47.918;8.112;2023-01-28T01:52:25;90886.16;;;-3.86;78.32
69909;BME280;57190;47.918;8.112;2023-01-28T01:54:56;90896.22;;;-3.83;77.91
69909;BME280;57190;47.918;8.112;2023-01-28T01:57:27;90890.81;;;-3.82;77.09
69909;BME280;57190;47.918;8.112;2023-01-28T01:59:53;90900.97;;;-3.87;77.81
69909;BME280;57190;47.918;8.112;2023-01-28T02:02:20;90903.59;;;-3.87;77.68
69909;BME280;57190;47.918;8.112;2023-01-28T02:04:46;90905.75;;;-3.90;78.01
69909;BME280;57190;47.918;8.112;2023-01-28T02:07:14;90906.53;;;-3.90;78.53
69909;BME280;57190;47.918;8.112;2023-01-28T02:09:41;90903.25;;;-3.84;78.89
69909;BME280;57190;47.918;8.112;2023-01-28T02:12:13;90896.84;;;-3.81;77.79
69909;BME280;57190;47.918;8.112;2023-01-28T02:14:47;90894.88;;;-3.79;78.53
69909;BME280;57190;47.918;8.112;2023-01-28T02:17:14;90895.69;;;-3.79;77.91
69909;BME280;57190;47.918;8.112;2023-01-28T02:19:50;90897.38;;;-3.86;78.20
69909;BME280;57190;47.918;8.112;2023-01-28T02:28:13;90899.66;;;-3.83;78.09
69909;BME280;57190;47.918;8.112;2023-01-28T02:30:50;90900.25;;;-3.81;78.63
69909;BME280;57190;47.918;8.112;2023-01-28T02:33:23;90906.19;;;-3.87;78.77
69909;BME280;57190;47.918;8.112;2023-01-28T02:35:54;90906.28;;;-3.95;79.62
69909;BME280;57190;47.918;8.112;2023-01-28T02:38:26;90907.81;;;-4.01;79.20
69909;BME280;57190;47.918;8.112;2023-01-28T02:40:59;90909.16;;;-3.90;78.85
69909;BME280;57190;47.918;8.112;2023-01-28T02:43:38;90910.22;;;-3.84;79.36
69909;BME280;57190;47.918;8.112;2023-01-28T02:46:12;90904.22;;;-4.00;79.05
69909;BME280;57190;47.918;8.112;2023-01-28T02:48:58;90901.44;;;-4.13;80.20
69909;BME280;57190;47.918;8.112;2023-01-28T02:57:36;90907.25;;;-4.11;80.20
69909;BME280;57190;47.918;8.112;2023-01-28T03:00:09;90910.94;;;-4.05;79.44
69909;BME280;57190;47.918;8.112;2023-01-28T03:02:49;90908.59;;;-4.15;80.65
69909;BME280;57190;47.918;8.112;2023-01-28T03:05:40;90905.47;;;-4.11;80.02
69909;BME280;57190;47.918;8.112;2023-01-28T03:08:34;90911.66;;;-4.12;80.68
69909;BME280;57190;47.918;8.112;2023-01-28T03:11:19;90900.44;;;-4.12;80.90
69909;BME280;57190;47.918;8.112;2023-01-28T03:14:05;90904.13;;;-4.06;80.17
69909;BME280;57190;47.918;8.112;2023-01-28T03:16:50;90905.56;;;-4.04;80.19
69909;BME280;57190;47.918;8.112;2023-01-28T03:19:35;90898.75;;;-4.05;80.02
69909;BME280;57190;47.918;8.112;2023-01-28T03:22:19;90904.66;;;-3.96;80.61
69909;BME280;57190;47.918;8.112;2023-01-28T03:25:04;90910.78;;;-4.04;80.60
69909;BME280;57190;47.918;8.112;2023-01-28T03:28:03;90922.47;;;-4.00;80.82
69909;BME280;57190;47.918;8.112;2023-01-28T03:33:52;90922.72;;;-4.09;80.02
69909;BME280;57190;47.918;8.112;2023-01-28T03:36:37;90915.53;;;-4.07;81.17
69909;BME280;57190;47.918;8.112;2023-01-28T03:39:26;90922.09;;;-4.12;80.68
69909;BME280;57190;47.918;8.112;2023-01-28T03:42:07;90921.75;;;-4.08;80.90
69909;BME280;57190;47.918;8.112;2023-01-28T03:44:33;90925.69;;;-4.13;80.97
69909;BME280;57190;47.918;8.112;2023-01-28T03:47:13;90919.94;;;-4.08;80.51
69909;BME280;57190;47.918;8.112;2023-01-28T03:49:44;90930.97;;;-4.21;80.75
69909;BME280;57190;47.918;8.112;2023-01-28T03:52:13;90920.03;;;-4.01;81.24
69909;BME280;57190;47.918;8.112;2023-01-28T03:54:39;90919.28;;;-4.10;81.54
69909;BME280;57190;47.918;8.112;2023-01-28T03:57:05;90927.84;;;-4.01;80.21
69909;BME280;57190;47.918;8.112;2023-01-28T03:59:34;90935.75;;;-4.09;80.81
69909;BME280;57190;47.918;8.112;2023-01-28T04:01:59;90927.09;;;-4.10;80.57
69909;BME280;57190;47.918;8.112;2023-01-28T04:04:28;90913.47;;;-4.12;80.94
69909;BME280;57190;47.918;8.112;2023-01-28T04:06:56;90916.09;;;-4.12;81.03
69909;BME280;57190;47.918;8.112;2023-01-28T04:09:22;90915.53;;;-4.07;80.47
69909;BME280;57190;47.918;8.112;2023-01-28T04:11:48;90916.00;;;-4.04;80.53
69909;BME280;57190;47.918;8.112;2023-01-28T04:14:16;90919.13;;;-4.08;80.61
69909;BME280;57190;47.918;8.112;2023-01-28T04:16:42;90918.31;;;-4.09;81.19
69909;BME280;57190;47.918;8.112;2023-01-28T04:19:08;90921.09;;;-4.11;80.25
69909;BME280;57190;47.918;8.112;2023-01-28T04:21:34;90921.56;;;-4.07;80.42
69909;BME280;57190;47.918;8.112;2023-01-28T04:24:00;90922.72;;;-4.09;80.71
69909;BME280;57190;47.918;8.112;2023-01-28T04:26:44;90920.28;;;-4.11;79.76
69909;BME280;57190;47.918;8.112;2023-01-28T04:29:09;90924.69;;;-4.12;80.61
69909;BME280;57190;47.918;8.112;2023-01-28T04:31:35;90925.59;;;-4.04;80.22
69909;BME280;57190;47.918;8.112;2023-01-28T04:34:00;90925.78;;;-4.06;80.38
69909;BME280;57190;47.918;8.112;2023-01-28T04:36:26;90928.56;;;-4.07;80.48
69909;BME280;57190;47.918;8.112;2023-01-28T04:38:52;90930.53;;;-4.09;79.74
69909;BME280;57190;47.918;8.112;2023-01-28T04:41:17;90933.22;;;-4.03;79.74
69909;BME280;57190;47.918;8.112;2023-01-28T04:43:43;90929.63;;;-4.02;79.78
69909;BME280;57190;47.918;8.112;2023-01-28T04:46:08;90929.19;;;-4.05;79.42
69909;BME280;57190;47.918;8.112;2023-01-28T04:48:34;90930.63;;;-4.03;80.13
69909;BME280;57190;47.918;8.112;2023-01-28T04:51:02;90941.41;;;-4.06;80.09
69909;BME280;57190;47.918;8.112;2023-01-28T04:53:28;90941.03;;;-4.03;79.76
69909;BME280;57190;47.918;8.112;2023-01-28T04:55:53;90940.81;;;-3.93;79.36
69909;BME280;57190;47.918;8.112;2023-01-28T04:58:19;90938.53;;;-3.96;79.18
69909;BME280;57190;47.918;8.112;2023-01-28T05:00:44;90941.78;;;-3.94;79.61
69909;BME280;57190;47.918;8.112;2023-01-28T05:03:10;90946.66;;;-3.91;79.92
69909;BME280;57190;47.918;8.112;2023-01-28T05:05:35;90952.31;;;-3.87;79.20
69909;BME280;57190;47.918;8.112;2023-01-28T05:08:01;90962.38;;;-3.84;78.80
69909;BME280;57190;47.918;8.112;2023-01-28T05:10:27;90965.97;;;-3.85;78.70
69909;BME280;57190;47.918;8.112;2023-01-28T05:12:53;90968.41;;;-3.84;78.54
69909;BME280;57190;47.918;8.112;2023-01-28T05:15:19;90966.69;;;-3.91;79.32
69909;BME280;57190;47.918;8.112;2023-01-28T05:17:45;90963.19;;;-3.84;78.14
69909;BME280;57190;47.918;8.112;2023-01-28T05:20:12;90968.94;;;-3.88;79.31
69909;BME280;57190;47.918;8.112;2023-01-28T05:22:39;90967.06;;;-3.95;78.74
69909;BME280;57190;47.918;8.112;2023-01-28T05:25:05;90964.06;;;-3.91;79.01
69909;BME280;57190;47.918;8.112;2023-01-28T05:27:32;90964.72;;;-3.89;79.39
69909;BME280;57190;47.918;8.112;2023-01-28T05:29:58;90971.00;;;-3.84;79.03
69909;BME280;57190;47.918;8.112;2023-01-28T05:32:25;90965.16;;;-3.86;79.48
69909;BME280;57190;47.918;8.112;2023-01-28T05:34:50;90969.84;;;-3.81;79.32
69909;BME280;57190;47.918;8.112;2023-01-28T05:37:16;90974.41;;;-3.83;78.37
69909;BME280;57190;47.918;8.112;2023-01-28T05:39:41;90962.91;;;-3.89;78.96
69909;BME280;57190;47.918;8.112;2023-01-28T05:42:07;90973.31;;;-3.89;79.07
69909;BME280;57190;47.918;8.112;2023-01-28T05:44:32;90968.84;;;-3.95;78.75
69909;BME280;57190;47.918;8.112;2023-01-28T05:46:58;90971.44;;;-3.95;79.45
69909;BME280;57190;47.918;8.112;2023-01-28T05:49:23;90973.84;;;-3.93;79.57
69909;BME280;57190;47.918;8.112;2023-01-28T05:51:51;90968.47;;;-3.92;78.94
69909;BME280;57190;47.918;8.112;2023-01-28T05:54:16;90974.22;;;-3.97;79.07
69909;BME280;57190;47.918;8.112;2023-01-28T05:56:42;90968.47;;;-3.92;79.26
69909;BME280;57190;47.918;8.112;2023-01-28T05:59:10;90967.50;;;-3.91;79.32
69909;BME280;57190;47.918;8.112;2023-01-28T06:01:35;90965.25;;;-3.94;78.97
69909;BME280;57190;47.918;8.112;2023-01-28T06:04:01;90979.06;;;-3.93;79.28
69909;BME280;57190;47.918;8.112;2023-01-28T06:06:27;90979.38;;;-3.88;78.63
69909;BME280;57190;47.918;8.112;2023-01-28T06:08:52;90974.94;;;-3.88;78.76
69909;BME280;57190;47.918;8.112;2023-01-28T06:11:17;90980.06;;;-3.80;78.28
69909;BME280;57190;47.918;8.112;2023-01-28T06:13:43;90983.22;;;-3.84;78.06
69909;BME280;57190;47.918;8.112;2023-01-28T06:16:08;90987.63;;;-3.85;78.45
69909;BME280;57190;47.918;8.112;2023-01-28T06:18:34;90995.63;;;-3.86;79.01
69909;BME280;57190;47.918;8.112;2023-01-28T06:20:59;90995.53;;;-3.93;78.61
69909;BME280;57190;47.918;8.112;2023-01-28T06:23:24;90993.63;;;-3.99;78.35
69909;BME280;57190;47.918;8.112;2023-01-28T06:25:56;91009.88;;;-3.97;78.75
69909;BME280;57190;47.918;8.112;2023-01-28T06:28:22;91009.81;;;-4.04;78.71
69909;BME280;57190;47.918;8.112;2023-01-28T06:30:50;91016.00;;;-4.05;78.55
69909;BME280;57190;47.918;8.112;2023-01-28T06:33:16;91018.53;;;-3.82;78.55
69909;BME280;57190;47.918;8.112;2023-01-28T06:35:42;91012.88;;;-4.00;78.41
69909;BME280;57190;47.918;8.112;2023-01-28T06:38:08;91007.19;;;-4.04;78.64
69909;BME280;57190;47.918;8.112;2023-01-28T06:40:33;91009.88;;;-3.97;77.94
69909;BME280;57190;47.918;8.112;2023-01-28T06:42:59;91009.34;;;-4.07;79.01
69909;BME280;57190;47.918;8.112;2023-01-28T06:45:25;91016.22;;;-4.15;79.09
69909;BME280;57190;47.918;8.112;2023-01-28T06:47:50;91017.38;;;-4.17;80.28
69909;BME280;57190;47.918;8.112;2023-01-28T06:50:16;91021.81;;;-4.18;80.22
69909;BME280;57190;47.918;8.112;2023-01-28T06:52:41;91031.25;;;-4.17;80.50
69909;BME280;57190;47.918;8.112;2023-01-28T06:55:07;91027.34;;;-4.21;80.83
69909;BME280;57190;47.918;8.112;2023-01-28T06:57:33;91028.19;;;-4.20;80.56
69909;BME280;57190;47.918;8.112;2023-01-28T06:59:58;91026.25;;;-4.27;80.03
69909;BME280;57190;47.918;8.112;2023-01-28T07:02:24;91028.13;;;-4.12;79.94
69909;BME280;57190;47.918;8.112;2023-01-28T07:04:49;91047.16;;;-4.12;80.12
69909;BME280;57190;47.918;8.112;2023-01-28T07:07:15;91045.81;;;-4.07;79.38
69909;BME280;57190;47.918;8.112;2023-01-28T07:09:40;91039.16;;;-4.10;79.37
69909;BME280;57190;47.918;8.112;2023-01-28T07:12:06;91049.75;;;-4.12;79.97
69909;BME280;57190;47.918;8.112;2023-01-28T07:14:31;91040.63;;;-4.07;79.18
69909;BME280;57190;47.918;8.112;2023-01-28T07:16:57;91040.19;;;-4.19;80.00
69909;BME280;57190;47.918;8.112;2023-01-28T07:19:23;91042.97;;;-4.21;79.98
69909;BME280;57190;47.918;8.112;2023-01-28T07:21:48;91048.38;;;-4.22;80.41
69909;BME280;57190;47.918;8.112;2023-01-28T07:24:14;91033.91;;;-4.25;80.40
69909;BME280;57190;47.918;8.112;2023-01-28T07:26:39;91040.75;;;-4.24;80.49
69909;BME280;57190;47.918;8.112;2023-01-28T07:29:05;91043.75;;;-4.12;79.80
69909;BME280;57190;47.918;8.112;2023-01-28T07:31:30;91062.13;;;-4.14;80.60
69909;BME280;57190;47.918;8.112;2023-01-28T07:33:56;91055.41;;;-4.08;80.37
69909;BME280;57190;47.918;8.112;2023-01-28T07:36:21;91057.69;;;-4.05;79.55
69909;BME280;57190;47.918;8.112;2023-01-28T07:38:47;91057.84;;;-4.06;80.20
69909;BME280;57190;47.918;8.112;2023-01-28T07:41:12;91056.66;;;-4.19;80.21
69909;BME280;57190;47.918;8.112;2023-01-28T07:43:38;91053.72;;;-4.16;80.36
69909;BME280;57190;47.918;8.112;2023-01-28T07:46:03;91061.78;;;-4.11;79.93
69909;BME280;57190;47.918;8.112;2023-01-28T07:48:29;91057.56;;;-4.12;80.60
69909;BME280;57190;47.918;8.112;2023-01-28T07:50:57;91062.72;;;-4.03;79.75
69909;BME280;57190;47.918;8.112;2023-01-28T07:53:23;91062.19;;;-3.99;79.93
69909;BME280;57190;47.918;8.112;2023-01-28T07:55:49;91058.59;;;-3.98;79.09
69909;BME280;57190;47.918;8.112;2023-01-28T07:58:14;91059.06;;;-3.94;79.34
69909;BME280;57190;47.918;8.112;2023-01-28T08:00:40;91058.09;;;-3.93;79.27
69909;BME280;57190;47.918;8.112;2023-01-28T08:03:13;91058.81;;;-3.84;78.50
69909;BME280;57190;47.918;8.112;2023-01-28T08:05:48;91072.06;;;-3.71;77.48
69909;BME280;57190;47.918;8.112;2023-01-28T08:08:15;91074.63;;;-3.86;78.64
69909;BME280;57190;47.918;8.112;2023-01-28T08:10:41;91078.69;;;-3.83;78.90
69909;BME280;57190;47.918;8.112;2023-01-28T08:13:09;91084.19;;;-3.78;78.05
69909;BME280;57190;47.918;8.112;2023-01-28T08:15:35;91079.31;;;-3.81;77.80
69909;BME280;57190;47.918;8.112;2023-01-28T08:18:02;91083.72;;;-3.82;78.04
69909;BME280;57190;47.918;8.112;2023-01-28T08:20:28;91090.94;;;-3.69;77.97
69909;BME280;57190;47.918;8.112;2023-01-28T08:23:07;91089.03;;;-3.75;78.63
69909;BME280;57190;47.918;8.112;2023-01-28T08:25:33;91100.44;;;-3.76;78.26
69909;BME280;57190;47.918;8.112;2023-01-28T08:27:59;91100.69;;;-3.63;77.33
69909;BME280;57190;47.918;8.112;2023-01-28T08:30:24;91104.88;;;-3.76;77.35
69909;BME280;57190;47.918;8.112;2023-01-28T08:32:50;91109.19;;;-3.69;77.81
69909;BME280;57190;47.918;8.112;2023-01-28T08:35:15;91115.41;;;-3.70;77.67
69909;BME280;57190;47.918;8.112;2023-01-28T08:37:41;91105.78;;;-3.69;77.91
69909;BME280;57190;47.918;8.112;2023-01-28T08:40:07;91112.03;;;-3.55;76.98
69909;BME280;57190;47.918;8.112;2023-01-28T08:42:32;91114.78;;;-3.72;76.80
69909;BME280;57190;47.918;8.112;2023-01-28T08:44:58;91114.84;;;-3.65;76.50
69909;BME280;57190;47.918;8.112;2023-01-28T08:47:23;91114.69;;;-3.64;76.98
69909;BME280;57190;47.918;8.112;2023-01-28T08:49:49;91112.22;;;-3.57;76.67
69909;BME280;57190;47.918;8.112;2023-01-28T08:52:14;91115.94;;;-3.59;76.63
69909;BME280;57190;47.918;8.112;2023-01-28T08:54:40;91104.97;;;-3.70;77.12
69909;BME280;57190;47.918;8.112;2023-01-28T08:57:05;91117.66;;;-3.67;76.82
69909;BME280;57190;47.918;8.112;2023-01-28T08:59:30;91115.56;;;-3.71;77.32
69909;BME280;57190;47.918;8.112;2023-01-28T09:01:56;91113.25;;;-3.66;77.78
69909;BME280;57190;47.918;8.112;2023-01-28T09:04:21;91117.31;;;-3.64;77.63
69909;BME280;57190;47.918;8.112;2023-01-28T09:06:47;91117.75;;;-3.60;77.60
69909;BME280;57190;47.918;8.112;2023-01-28T09:09:12;91122.44;;;-3.55;77.32
69909;BME280;57190;47.918;8.112;2023-01-28T09:11:38;91123.44;;;-3.56;76.87
69909;BME280;57190;47.918;8.112;2023-01-28T09:14:03;91114.19;;;-3.59;76.57
69909;BME280;57190;47.918;8.112;2023-01-28T09:16:29;91123.31;;;-3.63;77.28
69909;BME280;57190;47.918;8.112;2023-01-28T09:18:54;91123.63;;;-3.58;77.42
69909;BME280;57190;47.918;8.112;2023-01-28T09:21:20;91123.03;;;-3.45;76.85
69909;BME280;57190;47.918;8.112;2023-01-28T09:23:45;91126.50;;;-3.53;76.79
69909;BME280;57190;47.918;8.112;2023-01-28T09:26:11;91125.63;;;-3.45;76.54
69909;BME280;57190;47.918;8.112;2023-01-28T09:28:37;91124.16;;;-3.48;76.44
69909;BME280;57190;47.918;8.112;2023-01-28T09:31:10;91124.47;;;-3.42;76.58
69909;BME280;57190;47.918;8.112;2023-01-28T09:33:37;91131.31;;;-3.41;77.06
69909;BME280;57190;47.918;8.112;2023-01-28T09:36:04;91129.84;;;-3.44;76.75
69909;BME280;57190;47.918;8.112;2023-01-28T09:38:30;91132.31;;;-3.27;75.42
69909;BME280;57190;47.918;8.112;2023-01-28T09:40:57;91147.81;;;-3.49;77.06
69909;BME280;57190;47.918;8.112;2023-01-28T09:45:59;91136.97;;;-3.38;75.76
69909;BME280;57190;47.918;8.112;2023-01-28T09:48:32;91143.00;;;-3.37;75.63
69909;BME280;57190;47.918;8.112;2023-01-28T09:51:02;91130.59;;;-3.35;75.27
69909;BME280;57190;47.918;8.112;2023-01-28T09:53:36;91131.75;;;-3.23;75.48
69909;BME280;57190;47.918;8.112;2023-01-28T09:56:12;91133.97;;;-2.96;73.92
69909;BME280;57190;47.918;8.112;2023-01-28T09:58:40;91140.09;;;-2.89;73.34
69909;BME280;57190;47.918;8.112;2023-01-28T10:11:43;91137.03;;;-2.78;71.61
69909;BME280;57190;47.918;8.112;2023-01-28T10:14:27;91137.38;;;-2.66;70.81
69909;BME280;57190;47.918;8.112;2023-01-28T10:17:11;91138.91;;;-2.57;70.62
69909;BME280;57190;47.918;8.112;2023-01-28T10:19:49;91142.78;;;-2.53;70.21
69909;BME280;57190;47.918;8.112;2023-01-28T10:24:55;91134.69;;;-2.58;70.25
69909;BME280;57190;47.918;8.112;2023-01-28T10:27:26;91137.19;;;-2.49;70.60
69909;BME280;57190;47.918;8.112;2023-01-28T10:29:53;91136.09;;;-2.40;70.05
69909;BME280;57190;47.918;8.112;2023-01-28T10:34:53;91136.53;;;-2.37;68.99
69909;BME280;57190;47.918;8.112;2023-01-28T10:37:19;91126.25;;;-2.38;69.67
69909;BME280;57190;47.918;8.112;2023-01-28T10:39:45;91129.72;;;-2.53;70.32
69909;BME280;57190;47.918;8.112;2023-01-28T10:42:27;91140.00;;;-2.66;70.86
69909;BME280;57190;47.918;8.112;2023-01-28T10:45:17;91137.66;;;-2.61;71.04
69909;BME280;57190;47.918;8.112;2023-01-28T10:47:48;91135.66;;;-2.74;71.94
69909;BME280;57190;47.918;8.112;2023-01-28T10:50:23;91143.50;;;-2.74;71.58
69909;BME280;57190;47.918;8.112;2023-01-28T10:52:56;91139.00;;;-2.65;71.68
69909;BME280;57190;47.918;8.112;2023-01-28T10:55:30;91135.28;;;-2.56;71.98
69909;BME280;57190;47.918;8.112;2023-01-28T10:57:57;91137.78;;;-2.47;70.39
69909;BME280;57190;47.918;8.112;2023-01-28T11:00:25;91130.78;;;-2.32;71.00
69909;BME280;57190;47.918;8.112;2023-01-28T11:02:52;91123.97;;;-2.26;70.18
69909;BME280;57190;47.918;8.112;2023-01-28T11:05:23;91107.16;;;-2.02;68.82
69909;BME280;57190;47.918;8.112;2023-01-28T11:08:08;91116.31;;;-1.91;68.50
69909;BME280;57190;47.918;8.112;2023-01-28T11:10:37;91098.16;;;-1.78;67.80
69909;BME280;57190;47.918;8.112;2023-01-28T11:13:04;91122.53;;;-1.49;66.92
69909;BME280;57190;47.918;8.112;2023-01-28T11:15:31;91118.31;;;-1.71;66.41
69909;BME280;57190;47.918;8.112;2023-01-28T11:17:59;91112.19;;;-1.57;66.95
69909;BME280;57190;47.918;8.112;2023-01-28T11:20:27;91118.28;;;-1.50;66.82
69909;BME280;57190;47.918;8.112;2023-01-28T11:22:55;91117.25;;;-1.55;66.88
69909;BME280;57190;47.918;8.112;2023-01-28T11:25:34;91119.88;;;-1.55;67.68
69909;BME280;57190;47.918;8.112;2023-01-28T11:28:04;91125.69;;;-1.60;68.05
69909;BME280;57190;47.918;8.112;2023-01-28T11:30:34;91126.41;;;-1.66;67.80
69909;BME280;57190;47.918;8.112;2023-01-28T11:35:35;91124.47;;;-1.58;68.53
69909;BME280;57190;47.918;8.112;2023-01-28T11:38:00;91125.72;;;-1.53;68.53
69909;BME280;57190;47.918;8.112;2023-01-28T11:40:26;91130.47;;;-1.64;68.49
69909;BME280;57190;47.918;8.112;2023-01-28T11:42:53;91142.84;;;-1.51;68.52
69909;BME280;57190;47.918;8.112;2023-01-28T11:50:32;91133.78;;;-1.77;69.19
69909;BME280;57190;47.918;8.112;2023-01-28T11:53:12;91133.91;;;-1.85;69.34
69909;BME280;57190;47.918;8.112;2023-01-28T12:01:48;91125.50;;;-1.30;67.39
69909;BME280;57190;47.918;8.112;2023-01-28T12:04:32;91124.09;;;-1.33;67.89
69909;BME280;57190;47.918;8.112;2023-01-28T12:10:00;91127.72;;;-1.55;68.87
69909;BME280;57190;47.918;8.112;2023-01-28T12:15:42;91123.69;;;-1.80;70.27
69909;BME280;57190;47.918;8.112;2023-01-28T12:21:05;91126.34;;;-1.95;70.20
69909;BME280;57190;47.918;8.112;2023-01-28T12:26:18;91138.41;;;-1.94;69.76
69909;BME280;57190;47.918;8.112;2023-01-28T12:37:09;91138.94;;;-2.20;71.72
69909;BME280;57190;47.918;8.112;2023-01-28T12:42:35;91138.78;;;-2.33;72.55
69909;BME280;57190;47.918;8.112;2023-01-28T12:47:38;91130.47;;;-2.22;71.61
69909;BME280;57190;47.918;8.112;2023-01-28T12:54:25;91139.88;;;-2.43;72.94
69909;BME280;57190;47.918;8.112;2023-01-28T12:56:37;91132.03;;;-2.43;73.25
69909;BME280;57190;47.918;8.112;2023-01-28T12:59:15;91140.13;;;-2.23;72.77
69909;BME280;57190;47.918;8.112;2023-01-28T13:02:48;91134.00;;;-2.30;71.72
69909;BME280;57190;47.918;8.112;2023-01-28T13:05:13;91140.16;;;-2.38;72.57
69909;BME280;57190;47.918;8.112;2023-01-28T13:07:47;91139.38;;;-2.53;72.96
69909;BME280;57190;47.918;8.112;2023-01-28T13:10:27;91131.25;;;-2.58;73.75
69909;BME280;57190;47.918;8.112;2023-01-28T13:12:55;91134.59;;;-2.64;74.07
69909;BME280;57190;47.918;8.112;2023-01-28T13:15:22;91134.69;;;-2.58;73.74
69909;BME280;57190;47.918;8.112;2023-01-28T13:20:37;91141.25;;;-2.47;72.86
69909;BME280;57190;47.918;8.112;2023-01-28T13:23:05;91148.34;;;-2.56;73.01
69909;BME280;57190;47.918;8.112;2023-01-28T13:25:50;91149.88;;;-2.46;73.26
69909;BME280;57190;47.918;8.112;2023-01-28T13:28:28;91144.75;;;-2.55;73.53
69909;BME280;57190;47.918;8.112;2023-01-28T13:31:08;91146.84;;;-2.65;73.01
69909;BME280;57190;47.918;8.112;2023-01-28T13:33:40;91142.06;;;-2.76;73.34
69909;BME280;57190;47.918;8.112;2023-01-28T13:39:21;91148.00;;;-2.67;73.78
69909;BME280;57190;47.918;8.112;2023-01-28T13:42:06;91151.59;;;-2.54;73.66
69909;BME280;57190;47.918;8.112;2023-01-28T13:44:33;91157.19;;;-2.57;73.89
69909;BME280;57190;47.918;8.112;2023-01-28T13:47:32;91147.44;;;-2.63;73.90
69909;BME280;57190;47.918;8.112;2023-01-28T13:50:10;91161.97;;;-2.60;74.13
69909;BME280;57190;47.918;8.112;2023-01-28T13:52:49;91167.34;;;-2.62;73.82
69909;BME280;57190;47.918;8.112;2023-01-28T13:55:22;91156.91;;;-2.62;73.52
69909;BME280;57190;47.918;8.112;2023-01-28T14:00:54;91153.06;;;-2.81;74.17
69909;BME280;57190;47.918;8.112;2023-01-28T14:03:29;91164.75;;;-2.77;74.73
69909;BME280;57190;47.918;8.112;2023-01-28T14:06:28;91159.63;;;-2.70;74.26
69909;BME280;57190;47.918;8.112;2023-01-28T14:09:28;91170.06;;;-2.70;74.15
69909;BME280;57190;47.918;8.112;2023-01-28T14:15:12;91155.56;;;-2.88;74.44
69909;BME280;57190;47.918;8.112;2023-01-28T14:17:52;91170.31;;;-2.95;75.22
69909;BME280;57190;47.918;8.112;2023-01-28T14:20:21;91167.25;;;-2.98;75.23
69909;BME280;57190;47.918;8.112;2023-01-28T14:22:48;91172.41;;;-2.75;74.40
69909;BME280;57190;47.918;8.112;2023-01-28T14:25:28;91176.44;;;-2.88;74.52
69909;BME280;57190;47.918;8.112;2023-01-28T14:27:59;91178.16;;;-2.95;74.27
69909;BME280;57190;47.918;8.112;2023-01-28T14:30:48;91178.34;;;-2.96;74.30
69909;BME280;57190;47.918;8.112;2023-01-28T14:33:16;91180.13;;;-2.97;74.22
69909;BME280;57190;47.918;8.112;2023-01-28T14:35:44;91186.16;;;-2.96;74.08
69909;BME280;57190;47.918;8.112;2023-01-28T14:38:17;91184.00;;;-2.93;74.29
69909;BME280;57190;47.918;8.112;2023-01-28T14:40:47;91190.75;;;-2.98;74.10
69909;BME280;57190;47.918;8.112;2023-01-28T14:43:20;91187.88;;;-3.04;75.10
69909;BME280;57190;47.918;8.112;2023-01-28T14:48:20;91196.63;;;-2.96;73.13
69909;BME280;57190;47.918;8.112;2023-01-28T14:51:05;91202.56;;;-3.03;73.08